createdAt,value
2023-01-18T00:02:13.350Z,18.50
2023-01-18T00:04:42.171Z,18.50
2023-01-18T00:07:11.242Z,18.50
2023-01-18T00:09:40.151Z,18.50
2023-01-18T00:12:09.021Z,18.50
2023-01-18T00:14:37.747Z,18.50
2023-01-18T00:17:06.639Z,18.50
2023-01-18T00:19:37.429Z,18.50
2023-01-18T00:22:06.144Z,18.60
2023-01-18T00:24:35.025Z,18.60
2023-01-18T00:27:03.779Z,18.60
2023-01-18T00:29:34.550Z,18.70
2023-01-18T00:32:03.351Z,18.80
2023-01-18T00:34:32.349Z,18.80
2023-01-18T00:37:01.130Z,18.80
2023-01-18T00:39:29.803Z,18.80
2023-01-18T00:42:18.263Z,18.80
2023-01-18T00:44:47.091Z,18.80
2023-01-18T00:47:15.779Z,18.80
2023-01-18T00:49:45.733Z,18.80
2023-01-18T00:52:14.428Z,18.80
2023-01-18T00:54:43.186Z,18.80
2023-01-18T00:57:11.957Z,18.80
2023-01-18T00:59:40.828Z,18.70
2023-01-18T01:02:09.653Z,18.70
2023-01-18T01:04:58.093Z,18.70
2023-01-18T01:07:27.186Z,18.80
2023-01-18T01:09:58.412Z,18.80
2023-01-18T01:12:47.088Z,18.80
2023-01-18T01:15:35.578Z,18.80
2023-01-18T01:18:23.970Z,18.80
2023-01-18T01:21:12.327Z,18.80
2023-01-18T01:24:00.634Z,18.80
2023-01-18T01:26:29.370Z,18.80
2023-01-18T01:28:58.154Z,18.80
2023-01-18T01:31:26.899Z,18.80
2023-01-18T01:33:55.697Z,18.90
2023-01-18T01:36:27.124Z,18.90
2023-01-18T01:38:57.360Z,19.00
2023-01-18T01:41:33.695Z,19.10
2023-01-18T01:44:05.815Z,19.20
2023-01-18T01:46:58.112Z,19.20
2023-01-18T01:49:41.103Z,19.30
2023-01-18T01:52:13.356Z,19.40
2023-01-18T01:54:49.645Z,19.50
2023-01-18T01:57:22.834Z,19.50
2023-01-18T02:00:01.711Z,19.50
2023-01-18T02:02:33.512Z,19.60
2023-01-18T02:05:04.458Z,19.60
2023-01-18T02:07:34.658Z,19.60
2023-01-18T02:10:04.619Z,19.60
2023-01-18T02:12:35.364Z,19.70
2023-01-18T02:15:04.861Z,19.70
2023-01-18T02:17:47.561Z,19.80
2023-01-18T02:20:20.985Z,19.80
2023-01-18T02:23:01.911Z,19.90
2023-01-18T02:25:58.208Z,19.90
2023-01-18T02:28:38.688Z,20.00
2023-01-18T02:31:28.257Z,20.00
2023-01-18T02:34:20.609Z,20.00
2023-01-18T02:36:54.767Z,20.10
2023-01-18T02:39:39.432Z,20.10
2023-01-18T02:42:35.989Z,20.20
2023-01-18T02:45:30.759Z,20.20
2023-01-18T02:47:59.636Z,20.40
2023-01-18T02:50:29.683Z,20.40
2023-01-18T02:52:58.716Z,20.40
2023-01-18T02:55:47.836Z,20.50
2023-01-18T02:58:36.583Z,20.50
2023-01-18T03:01:06.525Z,20.60
2023-01-18T03:03:37.084Z,20.60
2023-01-18T03:06:09.550Z,20.70
2023-01-18T03:08:42.321Z,20.70
2023-01-18T03:11:20.091Z,20.70
2023-01-18T03:13:58.833Z,20.70
2023-01-18T03:16:40.845Z,20.70
2023-01-18T03:19:39.221Z,20.80
2023-01-18T03:22:17.811Z,20.80
2023-01-18T03:24:47.556Z,20.90
2023-01-18T03:27:36.039Z,20.90
2023-01-18T03:30:25.432Z,21.00
2023-01-18T03:33:13.912Z,21.00
2023-01-18T03:35:43.319Z,21.10
2023-01-18T03:38:12.342Z,21.10
2023-01-18T03:40:41.351Z,21.20
2023-01-18T03:43:16.080Z,21.30
2023-01-18T03:45:47.620Z,21.30
2023-01-18T03:48:17.278Z,21.40
2023-01-18T03:51:25.272Z,21.40
2023-01-18T03:54:18.866Z,21.40
2023-01-18T03:57:00.543Z,21.50
2023-01-18T03:59:35.428Z,21.60
2023-01-18T04:02:06.336Z,21.70
2023-01-18T04:04:35.683Z,21.80
2023-01-18T04:07:04.929Z,21.80
2023-01-18T04:09:34.065Z,21.90
2023-01-18T04:12:03.604Z,21.90
2023-01-18T04:14:32.723Z,21.90
2023-01-18T04:17:01.669Z,21.90
2023-01-18T04:19:30.736Z,21.90
2023-01-18T04:22:02.607Z,22.00
2023-01-18T04:24:31.628Z,22.10
2023-01-18T04:27:00.589Z,22.10
2023-01-18T04:29:29.673Z,22.20
2023-01-18T04:31:58.685Z,22.20
2023-01-18T04:34:27.653Z,22.30
2023-01-18T04:36:56.557Z,22.30
2023-01-18T04:39:25.376Z,22.40
2023-01-18T04:41:55.736Z,22.40
2023-01-18T04:44:25.786Z,22.40
2023-01-18T04:46:54.718Z,22.50
2023-01-18T04:49:23.598Z,22.60
2023-01-18T04:51:52.332Z,22.60
2023-01-18T04:54:36.635Z,22.60
2023-01-18T04:57:05.412Z,22.70
2023-01-18T04:59:34.400Z,22.70
2023-01-18T05:02:03.229Z,22.70
2023-01-18T05:04:32.078Z,22.70
2023-01-18T05:07:03.350Z,22.80
2023-01-18T05:09:32.256Z,22.90
2023-01-18T05:12:01.067Z,22.90
2023-01-18T05:14:29.904Z,23.00
2023-01-18T05:16:58.686Z,23.10
2023-01-18T05:19:31.426Z,23.10
2023-01-18T05:22:00.127Z,23.10
2023-01-18T05:24:30.022Z,23.20
2023-01-18T05:26:59.337Z,23.20
2023-01-18T05:29:28.127Z,23.30
2023-01-18T05:31:56.881Z,23.30
2023-01-18T05:34:30.907Z,23.30
2023-01-18T05:36:59.887Z,23.40
2023-01-18T05:39:28.773Z,23.40
2023-01-18T05:42:00.018Z,23.40
2023-01-18T05:44:33.652Z,23.40
2023-01-18T05:47:03.150Z,23.40
2023-01-18T05:49:32.101Z,23.40
2023-01-18T05:52:00.963Z,23.50
2023-01-18T05:54:29.828Z,23.60
2023-01-18T05:56:59.444Z,23.70
2023-01-18T05:59:28.439Z,23.70
2023-01-18T06:01:57.693Z,23.70
2023-01-18T06:04:26.677Z,23.70
2023-01-18T06:06:56.300Z,23.70
2023-01-18T06:09:25.250Z,23.80
2023-01-18T06:11:54.067Z,23.70
2023-01-18T06:14:22.953Z,23.80
2023-01-18T06:16:51.812Z,23.80
2023-01-18T06:19:20.799Z,23.90
2023-01-18T06:21:49.568Z,24.00
2023-01-18T06:24:18.598Z,24.00
2023-01-18T06:26:47.587Z,24.00
2023-01-18T06:29:16.384Z,24.10
2023-01-18T06:31:45.218Z,24.10
2023-01-18T06:34:14.029Z,24.00
2023-01-18T06:36:42.882Z,24.00
2023-01-18T06:39:11.799Z,24.00
2023-01-18T06:41:40.646Z,24.10
2023-01-18T06:44:09.485Z,24.10
2023-01-18T06:46:38.414Z,24.20
2023-01-18T06:49:07.156Z,24.30
2023-01-18T06:51:36.024Z,24.30
2023-01-18T06:54:04.979Z,24.30
2023-01-18T06:56:33.886Z,24.30
2023-01-18T06:59:02.750Z,24.40
2023-01-18T07:01:31.653Z,24.40
2023-01-18T07:04:00.975Z,24.40
2023-01-18T07:06:29.891Z,24.50
2023-01-18T07:08:58.657Z,24.50
2023-01-18T07:11:27.456Z,24.50
2023-01-18T07:13:56.284Z,24.50
2023-01-18T07:16:25.173Z,24.50
2023-01-18T07:18:54.039Z,24.60
2023-01-18T07:21:30.460Z,24.60
2023-01-18T07:24:00.305Z,24.60
2023-01-18T07:26:29.231Z,24.60
2023-01-18T07:28:57.927Z,24.60
2023-01-18T07:31:27.374Z,24.60
2023-01-18T07:33:56.457Z,24.70
2023-01-18T07:36:25.239Z,24.70
2023-01-18T07:38:54.126Z,24.80
2023-01-18T07:41:24.362Z,24.90
2023-01-18T07:43:54.985Z,24.90
2023-01-18T07:46:24.733Z,25.00
2023-01-18T07:48:54.320Z,25.00
2023-01-18T07:51:23.806Z,25.00
2023-01-18T07:53:56.764Z,25.00
2023-01-18T07:56:26.779Z,25.00
2023-01-18T07:58:56.755Z,24.90
2023-01-18T08:01:25.981Z,24.90
2023-01-18T08:03:55.746Z,25.00
2023-01-18T08:06:26.470Z,25.00
2023-01-18T08:08:58.013Z,25.00
2023-01-18T08:11:27.058Z,25.00
2023-01-18T08:13:55.976Z,25.00
2023-01-18T08:16:25.579Z,25.00
2023-01-18T08:18:54.496Z,25.10
2023-01-18T08:21:23.370Z,25.10
2023-01-18T08:23:55.223Z,25.20
2023-01-18T08:26:24.118Z,25.20
2023-01-18T08:28:52.892Z,25.20
2023-01-18T08:31:23.012Z,25.20
2023-01-18T08:33:53.691Z,25.30
2023-01-18T08:36:28.289Z,25.30
2023-01-18T08:38:59.120Z,25.30
2023-01-18T08:41:30.206Z,25.30
2023-01-18T08:44:00.501Z,25.30
2023-01-18T08:46:29.467Z,25.40
2023-01-18T08:49:00.618Z,25.40
2023-01-18T08:51:29.567Z,25.40
2023-01-18T08:53:59.774Z,25.40
2023-01-18T08:56:28.948Z,25.50
2023-01-18T08:58:58.660Z,25.50
2023-01-18T09:01:27.971Z,25.50
2023-01-18T09:03:59.491Z,25.50
2023-01-18T09:06:33.006Z,25.50
2023-01-18T09:09:02.684Z,25.50
2023-01-18T09:11:32.676Z,25.50
2023-01-18T09:14:02.562Z,25.50
2023-01-18T09:16:32.702Z,25.40
2023-01-18T09:19:02.201Z,25.40
2023-01-18T09:21:31.081Z,25.40
2023-01-18T09:24:00.824Z,25.30
2023-01-18T09:26:31.297Z,25.40
2023-01-18T09:29:00.405Z,25.40
2023-01-18T09:31:30.036Z,25.40
2023-01-18T09:34:19.313Z,25.40
2023-01-18T09:36:51.233Z,25.40
2023-01-18T09:39:22.073Z,25.40
2023-01-18T09:41:56.135Z,25.40
2023-01-18T09:44:32.728Z,25.40
2023-01-18T09:47:23.352Z,25.40
2023-01-18T09:49:59.933Z,25.40
2023-01-18T09:52:33.046Z,25.40
2023-01-18T09:55:09.059Z,25.30
2023-01-18T09:57:51.421Z,25.30
2023-01-18T10:00:27.111Z,25.30
2023-01-18T10:03:01.823Z,25.30
2023-01-18T10:05:36.046Z,25.30
2023-01-18T10:08:16.454Z,25.20
2023-01-18T10:11:06.309Z,25.20
2023-01-18T10:13:43.095Z,25.20
2023-01-18T10:16:15.957Z,25.20
2023-01-18T10:18:49.178Z,25.20
2023-01-18T10:21:28.107Z,25.20
2023-01-18T10:24:17.795Z,25.20
2023-01-18T10:26:49.389Z,25.10
2023-01-18T10:29:23.545Z,25.10
2023-01-18T10:32:02.834Z,25.10
2023-01-18T10:34:34.787Z,25.00
2023-01-18T10:37:20.756Z,25.00
2023-01-18T10:39:54.548Z,25.00
2023-01-18T10:42:30.250Z,24.90
2023-01-18T10:44:58.980Z,24.90
2023-01-18T10:47:27.660Z,24.90
2023-01-18T10:50:00.831Z,24.80
2023-01-18T10:52:32.901Z,24.80
2023-01-18T10:55:03.466Z,24.80
2023-01-18T10:57:51.084Z,24.70
2023-01-18T11:00:35.943Z,24.60
2023-01-18T11:03:07.619Z,24.60
2023-01-18T11:05:45.658Z,24.50
2023-01-18T11:08:32.804Z,24.40
2023-01-18T11:11:21.553Z,24.30
2023-01-18T11:13:51.895Z,24.20
2023-01-18T11:16:22.621Z,24.10
2023-01-18T11:19:00.411Z,24.10
2023-01-18T11:21:49.977Z,24.00
2023-01-18T11:24:28.455Z,23.90
2023-01-18T11:27:00.131Z,23.80
2023-01-18T11:29:33.993Z,23.80
2023-01-18T11:32:07.169Z,23.70
2023-01-18T11:34:39.700Z,23.70
2023-01-18T11:37:32.028Z,23.60
2023-01-18T11:40:01.531Z,23.50
2023-01-18T11:42:33.395Z,23.50
2023-01-18T11:45:41.474Z,23.50
2023-01-18T11:48:40.362Z,23.40
2023-01-18T11:51:35.360Z,23.40
2023-01-18T11:54:13.508Z,23.40
2023-01-18T11:56:50.600Z,23.30
2023-01-18T11:59:31.359Z,23.30
2023-01-18T12:02:24.185Z,23.20
2023-01-18T12:05:11.245Z,23.20
2023-01-18T12:07:47.851Z,23.20
2023-01-18T12:10:24.561Z,23.20
2023-01-18T12:13:13.322Z,23.20
2023-01-18T12:16:18.311Z,23.20
2023-01-18T12:19:26.266Z,23.10
2023-01-18T12:22:21.820Z,23.10
2023-01-18T12:24:55.082Z,23.10
2023-01-18T12:27:44.898Z,23.00
2023-01-18T12:30:47.298Z,23.00
2023-01-18T12:33:28.558Z,23.00
2023-01-18T12:36:14.556Z,22.90
2023-01-18T12:38:53.469Z,23.00
2023-01-18T12:41:34.549Z,22.90
2023-01-18T12:44:12.667Z,22.90
2023-01-18T12:47:08.679Z,22.90
2023-01-18T12:49:44.188Z,22.90
2023-01-18T12:52:19.371Z,22.80
2023-01-18T12:54:57.006Z,22.80
2023-01-18T12:57:27.649Z,22.70
2023-01-18T13:00:04.044Z,22.70
2023-01-18T13:02:39.160Z,22.70
2023-01-18T13:05:15.707Z,22.70
2023-01-18T13:07:51.001Z,22.60
2023-01-18T13:10:24.774Z,22.60
2023-01-18T13:12:55.548Z,22.60
2023-01-18T13:15:28.643Z,22.60
2023-01-18T13:18:09.054Z,22.60
2023-01-18T13:20:50.801Z,22.60
2023-01-18T13:23:28.381Z,22.60
2023-01-18T13:26:07.449Z,22.60
2023-01-18T13:28:37.938Z,22.60
2023-01-18T13:31:07.380Z,22.60
2023-01-18T13:33:42.032Z,22.50
2023-01-18T13:36:19.776Z,22.60
2023-01-18T13:38:54.775Z,22.60
2023-01-18T13:41:26.045Z,22.50
2023-01-18T13:44:04.453Z,22.50
2023-01-18T13:46:37.515Z,22.60
2023-01-18T13:49:37.653Z,22.50
2023-01-18T13:52:31.469Z,22.60
2023-01-18T13:55:03.552Z,22.60
2023-01-18T13:57:34.667Z,22.60
2023-01-18T14:00:03.962Z,22.60
2023-01-18T14:02:43.067Z,22.60
2023-01-18T14:05:25.466Z,22.60
2023-01-18T14:07:58.256Z,22.60
2023-01-18T14:10:37.834Z,22.60
2023-01-18T14:13:09.535Z,22.50
2023-01-18T14:15:55.220Z,22.50
2023-01-18T14:18:28.351Z,22.50
2023-01-18T14:21:06.882Z,22.50
2023-01-18T14:23:53.307Z,22.50
2023-01-18T14:26:23.619Z,22.50
2023-01-18T14:28:58.614Z,22.50
2023-01-18T14:31:34.401Z,22.40
2023-01-18T14:34:26.878Z,22.50
2023-01-18T14:36:56.125Z,22.50
2023-01-18T14:39:25.260Z,22.40
2023-01-18T14:41:58.497Z,22.40
2023-01-18T14:44:48.695Z,22.40
2023-01-18T14:47:27.583Z,22.40
2023-01-18T14:49:56.952Z,22.30
2023-01-18T14:52:31.927Z,22.30
2023-01-18T14:55:00.789Z,22.30
2023-01-18T14:57:29.609Z,22.20
2023-01-18T15:00:17.611Z,22.20
2023-01-18T15:02:47.312Z,22.20
2023-01-18T15:05:18.901Z,22.10
2023-01-18T15:07:56.357Z,22.10
2023-01-18T15:10:27.281Z,22.10
2023-01-18T15:12:59.657Z,22.10
2023-01-18T15:15:35.303Z,22.10
2023-01-18T15:18:13.343Z,22.00
2023-01-18T15:20:55.807Z,22.00
2023-01-18T15:23:25.973Z,22.00
2023-01-18T15:25:56.826Z,22.00
2023-01-18T15:28:32.771Z,21.90
2023-01-18T15:31:06.584Z,21.90
2023-01-18T15:33:37.718Z,21.80
2023-01-18T15:36:07.752Z,21.80
2023-01-18T15:38:36.887Z,21.80
2023-01-18T15:41:11.162Z,21.70
2023-01-18T15:43:44.964Z,21.70
2023-01-18T15:46:17.303Z,21.70
2023-01-18T15:48:51.563Z,21.70
2023-01-18T15:51:23.632Z,21.60
2023-01-18T15:53:57.151Z,21.60
2023-01-18T15:56:31.832Z,21.60
2023-01-18T15:59:03.128Z,21.60
2023-01-18T16:01:37.090Z,21.60
2023-01-18T16:04:23.577Z,21.50
2023-01-18T16:06:52.592Z,21.50
2023-01-18T16:09:24.195Z,21.40
2023-01-18T16:11:57.451Z,21.30
2023-01-18T16:14:35.077Z,21.30
2023-01-18T16:17:13.880Z,21.30
2023-01-18T16:19:45.624Z,21.20
2023-01-18T16:22:25.212Z,21.20
2023-01-18T16:24:56.926Z,21.30
2023-01-18T16:27:28.423Z,21.30
2023-01-18T16:30:00.848Z,21.20
2023-01-18T16:32:35.736Z,21.20
2023-01-18T16:35:13.383Z,21.20
2023-01-18T16:37:45.378Z,21.20
2023-01-18T16:40:15.978Z,21.20
2023-01-18T16:43:09.121Z,21.20
2023-01-18T16:45:39.915Z,21.10
2023-01-18T16:48:14.943Z,21.10
2023-01-18T16:50:43.874Z,21.00
2023-01-18T16:53:13.429Z,20.90
2023-01-18T16:55:45.170Z,20.80
2023-01-18T16:58:16.350Z,20.70
2023-01-18T17:01:18.020Z,20.70
2023-01-18T17:03:46.955Z,20.60
2023-01-18T17:06:21.416Z,20.60
2023-01-18T17:08:51.580Z,20.60
2023-01-18T17:11:20.443Z,20.50
2023-01-18T17:13:49.440Z,20.50
2023-01-18T17:16:20.910Z,20.50
2023-01-18T17:18:50.974Z,20.40
2023-01-18T17:21:19.778Z,20.40
2023-01-18T17:23:48.605Z,20.30
2023-01-18T17:26:18.004Z,20.30
2023-01-18T17:28:46.946Z,20.20
2023-01-18T17:31:15.695Z,20.20
2023-01-18T17:33:44.787Z,20.20
2023-01-18T17:36:13.698Z,20.10
2023-01-18T17:38:42.508Z,20.10
2023-01-18T17:41:26.535Z,20.10
2023-01-18T17:43:56.012Z,20.00
2023-01-18T17:46:24.876Z,20.00
2023-01-18T17:48:53.660Z,20.00
2023-01-18T17:51:22.509Z,20.00
2023-01-18T17:53:51.305Z,20.00
2023-01-18T17:56:20.333Z,20.00
2023-01-18T17:58:50.461Z,20.10
2023-01-18T18:01:19.350Z,20.10
2023-01-18T18:03:50.904Z,20.10
2023-01-18T18:06:31.629Z,20.10
2023-01-18T18:09:01.986Z,20.10
2023-01-18T18:11:31.194Z,20.00
2023-01-18T18:14:01.639Z,20.00
2023-01-18T18:16:32.704Z,20.00
2023-01-18T18:19:01.480Z,20.00
2023-01-18T18:21:30.186Z,19.90
2023-01-18T18:23:59.686Z,19.90
2023-01-18T18:26:28.623Z,19.90
2023-01-18T18:28:57.553Z,19.90
2023-01-18T18:31:26.417Z,19.90
2023-01-18T18:33:55.249Z,19.80
2023-01-18T18:36:28.083Z,19.70
2023-01-18T18:38:56.825Z,19.70
2023-01-18T18:41:25.624Z,19.70
2023-01-18T18:43:54.643Z,19.60
2023-01-18T18:46:23.609Z,19.50
2023-01-18T18:48:55.926Z,19.50
2023-01-18T18:51:25.028Z,19.50
2023-01-18T18:53:54.276Z,19.50
2023-01-18T18:56:23.138Z,19.50
2023-01-18T18:58:51.819Z,19.40
2023-01-18T19:01:23.542Z,19.50
2023-01-18T19:03:54.353Z,19.50
2023-01-18T19:06:24.765Z,19.50
2023-01-18T19:08:53.766Z,19.40
2023-01-18T19:11:22.724Z,19.30
2023-01-18T19:13:51.647Z,19.30
2023-01-18T19:16:21.057Z,19.20
2023-01-18T19:18:49.933Z,19.20
2023-01-18T19:21:19.603Z,19.20
2023-01-18T19:23:48.435Z,19.10
2023-01-18T19:26:17.434Z,19.10
2023-01-18T19:28:55.215Z,19.00
2023-01-18T19:31:23.948Z,19.00
2023-01-18T19:36:39.070Z,19.00
2023-01-18T19:39:14.736Z,18.90
2023-01-18T19:41:50.801Z,18.90
2023-01-18T19:44:19.511Z,18.80
2023-01-18T19:46:48.342Z,18.80
2023-01-18T19:49:17.130Z,18.80
2023-01-18T19:51:46.029Z,18.80
2023-01-18T19:54:14.744Z,18.70
2023-01-18T19:56:43.368Z,18.70
2023-01-18T19:59:12.513Z,18.70
2023-01-18T20:01:41.301Z,18.60
2023-01-18T20:04:11.017Z,18.60
2023-01-18T20:06:40.762Z,18.60
2023-01-18T20:09:19.012Z,18.60
2023-01-18T20:11:49.264Z,18.60
2023-01-18T20:14:19.469Z,18.60
2023-01-18T20:16:48.275Z,18.60
2023-01-18T20:19:18.830Z,18.60
2023-01-18T20:21:47.617Z,18.70
2023-01-18T20:24:17.270Z,18.70
2023-01-18T20:26:46.223Z,18.80
2023-01-18T20:29:14.944Z,18.90
2023-01-18T20:31:49.703Z,18.90
2023-01-18T20:34:18.871Z,18.90
2023-01-18T20:36:50.972Z,18.90
2023-01-18T20:39:20.889Z,19.00
2023-01-18T20:41:51.062Z,19.00
2023-01-18T20:44:19.798Z,19.00
2023-01-18T20:46:48.918Z,19.00
2023-01-18T20:49:22.451Z,19.00
2023-01-18T20:51:53.454Z,18.90
2023-01-18T20:54:22.306Z,18.90
2023-01-18T20:56:51.002Z,18.90
2023-01-18T20:59:21.186Z,18.90
2023-01-18T21:01:50.144Z,18.80
2023-01-18T21:04:18.895Z,18.80
2023-01-18T21:06:48.229Z,18.80
2023-01-18T21:09:17.102Z,18.80
2023-01-18T21:11:45.954Z,18.80
2023-01-18T21:14:14.769Z,18.80
2023-01-18T21:16:44.228Z,18.80
2023-01-18T21:19:13.159Z,18.70
2023-01-18T21:21:41.883Z,18.70
2023-01-18T21:24:10.780Z,18.70
2023-01-18T21:26:39.676Z,18.60
2023-01-18T21:29:08.380Z,18.70
2023-01-18T21:31:37.948Z,18.70
2023-01-18T21:34:08.235Z,18.70
2023-01-18T21:36:37.033Z,18.60
2023-01-18T21:39:06.492Z,18.60
2023-01-18T21:41:54.911Z,18.60
2023-01-18T21:44:43.298Z,18.50
2023-01-18T21:47:11.976Z,18.50
2023-01-18T21:50:21.483Z,18.50
2023-01-18T21:53:09.849Z,18.50
2023-01-18T21:55:41.224Z,18.50
2023-01-18T21:58:29.481Z,18.50
2023-01-18T22:01:01.697Z,18.40
2023-01-18T22:03:30.400Z,18.30
2023-01-18T22:06:02.415Z,18.30
2023-01-18T22:08:31.181Z,18.30
2023-01-18T22:11:00.403Z,18.30
2023-01-18T22:13:29.301Z,18.30
2023-01-18T22:15:58.054Z,18.20
2023-01-18T22:18:26.927Z,18.20
2023-01-18T22:20:57.434Z,18.10
2023-01-18T22:23:26.323Z,18.10
2023-01-18T22:25:57.182Z,18.20
2023-01-18T22:28:25.961Z,18.20
2023-01-18T22:30:54.915Z,18.20
2023-01-18T22:33:24.287Z,18.20
2023-01-18T22:35:59.471Z,18.20
2023-01-18T22:38:28.728Z,18.20
2023-01-18T22:41:08.398Z,18.20
2023-01-18T22:43:37.572Z,18.20
2023-01-18T22:46:07.394Z,18.20
2023-01-18T22:48:38.740Z,18.20
2023-01-18T22:51:08.894Z,18.10
2023-01-18T22:53:38.257Z,18.10
2023-01-18T22:56:09.620Z,18.10
2023-01-18T22:58:38.597Z,18.10
2023-01-18T23:01:21.386Z,18.10
2023-01-18T23:03:51.617Z,18.10
2023-01-18T23:06:21.834Z,18.00
2023-01-18T23:08:51.361Z,18.00
2023-01-18T23:11:23.219Z,18.00
2023-01-18T23:14:14.639Z,18.00
2023-01-18T23:17:03.681Z,18.00
2023-01-18T23:19:32.439Z,18.00
2023-01-18T23:22:01.248Z,18.00
2023-01-18T23:24:30.059Z,18.00
2023-01-18T23:26:58.807Z,17.90
2023-01-18T23:29:27.565Z,17.90
2023-01-18T23:31:57.427Z,17.90
2023-01-18T23:34:27.147Z,17.90
2023-01-18T23:36:56.460Z,18.00
2023-01-18T23:39:44.790Z,17.90
2023-01-18T23:42:33.282Z,18.00
2023-01-18T23:45:21.561Z,18.00
2023-01-18T23:48:09.934Z,18.00
2023-01-18T23:50:58.274Z,18.00
2023-01-18T23:53:46.630Z,18.00
2023-01-18T23:56:15.310Z,18.00
2023-01-18T23:58:44.211Z,17.90
